createdAt,value
2024-03-27T00:00:55.578Z,599.5
2024-03-27T00:01:57.402Z,600
2024-03-27T00:02:59.166Z,599.9
2024-03-27T00:04:00.947Z,599.8
2024-03-27T00:05:02.673Z,599.6
2024-03-27T00:06:04.462Z,600.1
2024-03-27T00:07:06.187Z,600.2
2024-03-27T00:08:08.038Z,600.7
2024-03-27T00:09:09.816Z,601
2024-03-27T00:10:11.560Z,600.4
2024-03-27T00:11:13.274Z,600.7
2024-03-27T00:12:15.043Z,600.9
2024-03-27T00:13:16.822Z,600.6
2024-03-27T00:14:18.543Z,600.5
2024-03-27T00:15:20.260Z,600.6
2024-03-27T00:16:21.981Z,600.7
2024-03-27T00:17:23.747Z,600.7
2024-03-27T00:18:25.626Z,600.6
2024-03-27T00:19:27.383Z,600.8
2024-03-27T00:20:29.092Z,600.6
2024-03-27T00:21:31.057Z,600.8
2024-03-27T00:22:32.828Z,600.9
2024-03-27T00:23:34.564Z,601.3
2024-03-27T00:24:36.322Z,600.9
2024-03-27T00:25:38.092Z,601.2
2024-03-27T00:26:39.790Z,601.4
2024-03-27T00:27:44.584Z,601.6
2024-03-27T00:28:46.375Z,601.5
2024-03-27T00:29:48.098Z,601.5
2024-03-27T00:30:49.904Z,601.5
2024-03-27T00:31:51.762Z,601.2
2024-03-27T00:32:53.463Z,601.6
2024-03-27T00:33:55.167Z,601.5
2024-03-27T00:34:56.952Z,601.6
2024-03-27T00:35:58.718Z,601.5
2024-03-27T00:37:00.699Z,601.6
2024-03-27T00:38:02.420Z,601.9
2024-03-27T00:39:04.135Z,601.4
2024-03-27T00:40:05.891Z,601.6
2024-03-27T00:41:07.683Z,602
2024-03-27T00:42:09.453Z,601.5
2024-03-27T00:43:11.314Z,601.6
2024-03-27T00:44:13.040Z,601.5
2024-03-27T00:45:14.807Z,601.5
2024-03-27T00:46:16.519Z,601.3
2024-03-27T00:47:18.262Z,601.2
2024-03-27T00:48:19.976Z,601.3
2024-03-27T00:49:21.723Z,601.3
2024-03-27T00:50:23.418Z,601.1
2024-03-27T00:51:25.181Z,601.2
2024-03-27T00:52:26.927Z,601
2024-03-27T00:53:28.691Z,601.7
2024-03-27T00:54:30.923Z,601.6
2024-03-27T00:55:32.699Z,601.7
2024-03-27T00:56:34.478Z,602
2024-03-27T00:57:36.233Z,601.5
2024-03-27T00:58:37.973Z,601.3
2024-03-27T00:59:39.719Z,601.3
2024-03-27T01:00:41.452Z,601.5
2024-03-27T01:01:43.213Z,602.6
2024-03-27T01:02:44.985Z,602.7
2024-03-27T01:03:46.789Z,602.4
2024-03-27T01:04:48.554Z,602.3
2024-03-27T01:05:50.359Z,601.9
2024-03-27T01:06:52.070Z,601.7
2024-03-27T01:07:53.770Z,601.9
2024-03-27T01:08:55.532Z,602.1
2024-03-27T01:09:57.296Z,602.4
2024-03-27T01:10:58.998Z,602.4
2024-03-27T01:12:00.822Z,602.6
2024-03-27T01:13:02.582Z,602.9
2024-03-27T01:14:04.339Z,602.9
2024-03-27T01:15:06.037Z,602.8
2024-03-27T01:16:07.763Z,602.8
2024-03-27T01:17:09.525Z,602.7
2024-03-27T01:18:11.394Z,602.9
2024-03-27T01:19:13.288Z,603.5
2024-03-27T01:20:15.067Z,603.5
2024-03-27T01:21:16.787Z,603.4
2024-03-27T01:22:18.506Z,602.9
2024-03-27T01:23:20.313Z,602.9
2024-03-27T01:24:22.065Z,602.6
2024-03-27T01:25:23.821Z,602.7
2024-03-27T01:26:25.576Z,602.7
2024-03-27T01:27:27.346Z,602.7
2024-03-27T01:28:29.100Z,602.7
2024-03-27T01:29:30.834Z,602.8
2024-03-27T01:30:32.595Z,603.2
2024-03-27T01:31:34.422Z,602.7
2024-03-27T01:32:36.124Z,602.4
2024-03-27T01:33:38.001Z,602.1
2024-03-27T01:34:39.719Z,602.5
2024-03-27T01:35:41.448Z,602.6
2024-03-27T01:36:43.133Z,602.6
2024-03-27T01:37:44.944Z,603
2024-03-27T01:38:46.671Z,603.1
2024-03-27T01:39:48.405Z,602.9
2024-03-27T01:40:50.241Z,603
2024-03-27T01:41:52.049Z,603.2
2024-03-27T01:42:53.864Z,603.3
2024-03-27T01:43:55.617Z,603.5
2024-03-27T01:44:57.372Z,603.9
2024-03-27T01:45:59.107Z,603.9
2024-03-27T01:47:00.933Z,604
2024-03-27T01:48:02.669Z,604.8
2024-03-27T01:49:04.408Z,605
2024-03-27T01:50:06.143Z,605.4
2024-03-27T01:51:07.884Z,605.3
2024-03-27T01:52:09.726Z,604.8
2024-03-27T01:53:11.504Z,604.8
2024-03-27T01:54:13.248Z,604.7
2024-03-27T01:55:14.989Z,604.8
2024-03-27T01:56:16.778Z,604.8
2024-03-27T01:57:18.516Z,605.1
2024-03-27T01:58:20.313Z,605.2
2024-03-27T01:59:22.071Z,605.1
2024-03-27T02:00:23.777Z,605.3
2024-03-27T02:01:25.535Z,605.4
2024-03-27T02:02:27.378Z,605.6
2024-03-27T02:03:29.372Z,605.5
2024-03-27T02:04:31.115Z,605.5
2024-03-27T02:05:32.893Z,605.7
2024-03-27T02:06:34.690Z,605.3
2024-03-27T02:07:36.449Z,605.4
2024-03-27T02:08:38.174Z,605.5
2024-03-27T02:09:39.940Z,605.4
2024-03-27T02:10:41.716Z,606
2024-03-27T02:11:43.482Z,606.4
2024-03-27T02:12:45.255Z,606.2
2024-03-27T02:13:47.083Z,606
2024-03-27T02:14:48.862Z,606.2
2024-03-27T02:15:56.675Z,606.1
2024-03-27T02:17:21.505Z,606.2
2024-03-27T02:18:23.258Z,606
2024-03-27T02:19:24.975Z,606.6
2024-03-27T02:20:26.734Z,606.6
2024-03-27T02:21:28.657Z,606.6
2024-03-27T02:22:30.552Z,606.3
2024-03-27T02:23:32.330Z,606.3
2024-03-27T02:24:34.229Z,606.5
2024-03-27T02:25:35.998Z,605.9
2024-03-27T02:26:37.718Z,606
2024-03-27T02:27:39.473Z,605.8
2024-03-27T02:28:41.145Z,605.8
2024-03-27T02:29:42.918Z,605.6
2024-03-27T02:30:44.653Z,605.8
2024-03-27T02:31:46.397Z,606
2024-03-27T02:32:48.198Z,605.9
2024-03-27T02:33:49.886Z,606.2
2024-03-27T02:34:51.597Z,605.9
2024-03-27T02:35:53.326Z,606.3
2024-03-27T02:36:55.135Z,606.4
2024-03-27T02:37:56.923Z,607
2024-03-27T02:38:58.656Z,606.8
2024-03-27T02:40:00.730Z,607.2
2024-03-27T02:41:02.552Z,606.8
2024-03-27T02:42:04.356Z,606.7
2024-03-27T02:43:06.113Z,606.9
2024-03-27T02:44:07.861Z,607.3
2024-03-27T02:45:09.662Z,607
2024-03-27T02:46:11.445Z,607
2024-03-27T02:47:13.246Z,607
2024-03-27T02:48:15.040Z,607.2
2024-03-27T02:49:16.775Z,607.2
2024-03-27T02:50:18.657Z,607.3
2024-03-27T02:51:20.398Z,607
2024-03-27T02:52:22.189Z,606.8
2024-03-27T02:53:23.971Z,606.3
2024-03-27T02:54:25.727Z,606.1
2024-03-27T02:55:27.468Z,606.1
2024-03-27T02:56:29.273Z,605.8
2024-03-27T02:57:31.083Z,605.6
2024-03-27T02:58:32.904Z,605.7
2024-03-27T02:59:34.630Z,605.3
2024-03-27T03:00:36.749Z,605.8
2024-03-27T03:01:38.740Z,605.5
2024-03-27T03:02:40.755Z,605.8
2024-03-27T03:03:42.499Z,605.7
2024-03-27T03:04:44.211Z,605.6
2024-03-27T03:05:45.978Z,605.7
2024-03-27T03:06:47.746Z,606.2
2024-03-27T03:07:49.503Z,606.5
2024-03-27T03:08:51.225Z,606.6
2024-03-27T03:09:52.975Z,606.8
2024-03-27T03:10:54.740Z,606.6
2024-03-27T03:11:56.460Z,606.7
2024-03-27T03:12:58.581Z,606.7
2024-03-27T03:14:00.446Z,606.3
2024-03-27T03:15:02.255Z,606.1
2024-03-27T03:16:04.079Z,605.8
2024-03-27T03:17:05.815Z,606.2
2024-03-27T03:18:07.515Z,606.1
2024-03-27T03:19:09.259Z,606.1
2024-03-27T03:20:11.039Z,605.7
2024-03-27T03:21:12.731Z,605.7
2024-03-27T03:22:14.456Z,605.9
2024-03-27T03:23:16.175Z,605.9
2024-03-27T03:24:17.948Z,606
2024-03-27T03:25:19.710Z,606.5
2024-03-27T03:26:21.429Z,606.4
2024-03-27T03:27:23.174Z,606.6
2024-03-27T03:28:24.902Z,606.2
2024-03-27T03:29:26.664Z,606
2024-03-27T03:30:28.425Z,606.1
2024-03-27T03:31:30.383Z,606.3
2024-03-27T03:32:32.109Z,606.2
2024-03-27T03:33:33.975Z,605.7
2024-03-27T03:34:35.776Z,605.4
2024-03-27T03:35:37.500Z,605.1
2024-03-27T03:36:39.209Z,605.1
2024-03-27T03:37:40.950Z,605.3
2024-03-27T03:38:42.685Z,605.1
2024-03-27T03:39:44.515Z,605.1
2024-03-27T03:40:46.269Z,605.2
2024-03-27T03:41:48.043Z,605.1
2024-03-27T03:42:49.852Z,605.2
2024-03-27T03:43:51.535Z,604.9
2024-03-27T03:44:53.331Z,605.2
2024-03-27T03:45:55.145Z,605.1
2024-03-27T03:46:56.969Z,605.1
2024-03-27T03:47:58.703Z,605.5
2024-03-27T03:49:00.686Z,605.3
2024-03-27T03:50:02.536Z,605.6
2024-03-27T03:51:04.283Z,605.5
2024-03-27T03:52:06.061Z,605.6
2024-03-27T03:53:07.796Z,606
2024-03-27T03:54:09.526Z,605.9
2024-03-27T03:55:11.314Z,605.9
2024-03-27T03:56:13.020Z,605.5
2024-03-27T03:57:14.757Z,605.7
2024-03-27T03:58:16.474Z,605.8
2024-03-27T03:59:18.235Z,605.9
2024-03-27T04:00:20.042Z,605.7
2024-03-27T04:01:21.902Z,605.5
2024-03-27T04:02:23.654Z,605.3
2024-03-27T04:03:25.414Z,605.3
2024-03-27T04:04:27.151Z,605.4
2024-03-27T04:05:28.891Z,605.2
2024-03-27T04:06:31.027Z,605.2
2024-03-27T04:07:33.207Z,605.3
2024-03-27T04:08:34.987Z,605.7
2024-03-27T04:09:36.791Z,605.5
2024-03-27T04:10:38.543Z,605.5
2024-03-27T04:11:40.362Z,605.5
2024-03-27T04:12:42.427Z,605.7
2024-03-27T04:13:44.210Z,606
2024-03-27T04:14:45.964Z,606.1
2024-03-27T04:15:47.706Z,606.1
2024-03-27T04:16:49.427Z,606.1
2024-03-27T04:17:51.281Z,606.2
2024-03-27T04:18:53.040Z,606.2
2024-03-27T04:19:54.764Z,605.6
2024-03-27T04:20:56.454Z,606.1
2024-03-27T04:21:58.212Z,606.3
2024-03-27T04:22:59.953Z,606.4
2024-03-27T04:24:01.730Z,606.6
2024-03-27T04:25:03.496Z,606.8
2024-03-27T04:26:07.653Z,607
2024-03-27T04:27:09.411Z,606.9
2024-03-27T04:28:11.153Z,606.6
2024-03-27T04:29:12.879Z,606.1
2024-03-27T04:30:14.645Z,605.7
2024-03-27T04:31:16.355Z,605.7
2024-03-27T04:32:18.083Z,606.5
2024-03-27T04:33:19.869Z,606.5
2024-03-27T04:34:21.754Z,606.4
2024-03-27T04:35:23.502Z,606
2024-03-27T04:36:25.258Z,606
2024-03-27T04:37:27.615Z,605.3
2024-03-27T04:38:29.365Z,605.2
2024-03-27T04:39:31.164Z,605.1
2024-03-27T04:40:32.897Z,605.1
2024-03-27T04:41:34.672Z,605.4
2024-03-27T04:42:36.503Z,605.1
2024-03-27T04:43:38.299Z,604.7
2024-03-27T04:44:40.304Z,604.4
2024-03-27T04:45:42.237Z,604.7
2024-03-27T04:46:43.971Z,604.7
2024-03-27T04:47:45.675Z,604.4
2024-03-27T04:48:47.458Z,604.2
2024-03-27T04:49:49.418Z,604.1
2024-03-27T04:50:51.288Z,604.2
2024-03-27T04:51:53.029Z,604.4
2024-03-27T04:52:54.728Z,604.2
2024-03-27T04:53:56.921Z,604.7
2024-03-27T04:54:58.642Z,604.4
2024-03-27T04:56:00.520Z,604.7
2024-03-27T04:57:02.342Z,604.7
2024-03-27T04:58:04.060Z,604.9
2024-03-27T04:59:05.830Z,605.2
2024-03-27T05:00:07.534Z,605.2
2024-03-27T05:01:09.243Z,605.5
2024-03-27T05:02:11.017Z,605.3
2024-03-27T05:03:18.514Z,604.9
2024-03-27T05:04:20.340Z,604.8
2024-03-27T05:05:22.122Z,605
2024-03-27T05:06:23.883Z,604.9
2024-03-27T05:07:25.607Z,605.4
2024-03-27T05:08:27.331Z,605.1
2024-03-27T05:09:29.041Z,604
2024-03-27T05:10:30.979Z,603.8
2024-03-27T05:11:32.715Z,604.6
2024-03-27T05:12:34.567Z,604.5
2024-03-27T05:13:36.487Z,605.2
2024-03-27T05:14:38.261Z,605
2024-03-27T05:15:40.053Z,604.3
2024-03-27T05:16:41.737Z,604.1
2024-03-27T05:17:43.499Z,603.9
2024-03-27T05:18:45.233Z,604
2024-03-27T05:19:47.048Z,604.7
2024-03-27T05:20:48.808Z,605.1
2024-03-27T05:21:50.533Z,604.5
2024-03-27T05:22:52.263Z,603.9
2024-03-27T05:23:53.976Z,604
2024-03-27T05:24:55.761Z,604.1
2024-03-27T05:25:57.538Z,604.4
2024-03-27T05:26:59.266Z,604.3
2024-03-27T05:28:01.081Z,604.8
2024-03-27T05:29:02.836Z,605
2024-03-27T05:30:04.654Z,605.3
2024-03-27T05:31:06.408Z,605.6
2024-03-27T05:32:08.171Z,606
2024-03-27T05:33:10.112Z,606.1
2024-03-27T05:34:11.889Z,606.3
2024-03-27T05:35:13.711Z,606
2024-03-27T05:36:22.657Z,605.6
2024-03-27T05:37:24.397Z,605.1
2024-03-27T05:38:26.200Z,605.2
2024-03-27T05:39:27.983Z,605.5
2024-03-27T05:40:29.703Z,605.7
2024-03-27T05:41:31.409Z,605.8
2024-03-27T05:42:33.161Z,606.1
2024-03-27T05:43:34.957Z,605.8
2024-03-27T05:44:36.692Z,605.6
2024-03-27T05:45:38.541Z,604.9
2024-03-27T05:46:40.291Z,604.8
2024-03-27T05:47:42.031Z,604.4
2024-03-27T05:48:43.784Z,604.8
2024-03-27T05:49:45.526Z,604.8
2024-03-27T05:50:47.553Z,605.3
2024-03-27T05:51:49.308Z,605.6
2024-03-27T05:52:51.205Z,605.5
2024-03-27T05:53:53.098Z,605.6
2024-03-27T05:54:54.801Z,605.3
2024-03-27T05:55:56.501Z,605.5
2024-03-27T05:56:58.259Z,605.8
2024-03-27T05:58:00.047Z,605.9
2024-03-27T05:59:01.831Z,605.8
2024-03-27T06:00:03.536Z,605.7
2024-03-27T06:01:05.271Z,605.2
2024-03-27T06:02:07.008Z,605.6
2024-03-27T06:03:08.768Z,605.5
2024-03-27T06:04:10.560Z,605.5
2024-03-27T06:05:12.465Z,604.9
2024-03-27T06:06:14.271Z,605.1
2024-03-27T06:07:15.978Z,605
2024-03-27T06:08:17.724Z,604.5
2024-03-27T06:09:19.508Z,604.8
2024-03-27T06:10:21.268Z,604.7
2024-03-27T06:11:22.958Z,604.7
2024-03-27T06:12:24.803Z,604.9
2024-03-27T06:13:26.542Z,605.1
2024-03-27T06:14:28.288Z,605
2024-03-27T06:15:30.196Z,604.5
2024-03-27T06:16:31.935Z,604.5
2024-03-27T06:17:33.704Z,604.3
2024-03-27T06:18:35.728Z,604.2
2024-03-27T06:19:37.520Z,604
2024-03-27T06:20:39.248Z,604.5
2024-03-27T06:21:41.098Z,604.8
2024-03-27T06:22:42.954Z,604.6
2024-03-27T06:23:44.712Z,605
2024-03-27T06:24:46.440Z,605.4
2024-03-27T06:25:48.139Z,605.1
2024-03-27T06:26:49.871Z,605
2024-03-27T06:27:51.665Z,604.5
2024-03-27T06:28:53.397Z,604.5
2024-03-27T06:29:55.165Z,604.4
2024-03-27T06:30:56.964Z,604.3
2024-03-27T06:31:58.709Z,604.5
2024-03-27T06:33:00.731Z,604.6
2024-03-27T06:34:02.501Z,605
2024-03-27T06:35:04.245Z,604.9
2024-03-27T06:36:05.958Z,604.1
2024-03-27T06:37:07.816Z,603.7
2024-03-27T06:38:09.569Z,603.9
2024-03-27T06:39:11.303Z,604.6
2024-03-27T06:40:13.104Z,604.9
2024-03-27T06:41:14.848Z,604.8
2024-03-27T06:42:16.679Z,604.6
2024-03-27T06:43:18.430Z,604.5
2024-03-27T06:44:20.231Z,604.3
2024-03-27T06:45:33.380Z,604.7
2024-03-27T06:46:38.065Z,604.7
2024-03-27T06:47:39.875Z,604.5
2024-03-27T06:48:41.958Z,604.8
2024-03-27T06:49:43.769Z,605.5
2024-03-27T06:50:45.537Z,606.3
2024-03-27T06:51:47.290Z,605.1
2024-03-27T06:52:49.355Z,604.3
2024-03-27T06:53:51.125Z,604.4
2024-03-27T06:54:52.969Z,604.4
2024-03-27T06:55:54.755Z,604.2
2024-03-27T06:56:56.476Z,603.9
2024-03-27T06:57:58.231Z,603.9
2024-03-27T06:59:00.022Z,603.8
2024-03-27T07:00:01.795Z,603.6
2024-03-27T07:01:27.486Z,603.5
2024-03-27T07:02:30.451Z,603.8
2024-03-27T07:03:32.350Z,603.8
2024-03-27T07:04:34.077Z,603.1
2024-03-27T07:05:35.832Z,602.6
2024-03-27T07:06:37.771Z,603.4
2024-03-27T07:07:39.491Z,603.2
2024-03-27T07:08:41.551Z,603
2024-03-27T07:09:43.379Z,602.5
2024-03-27T07:10:45.180Z,602.8
2024-03-27T07:11:46.916Z,602.8
2024-03-27T07:12:48.748Z,602.6
2024-03-27T07:13:50.548Z,603.4
2024-03-27T07:14:52.642Z,604.1
2024-03-27T07:15:54.421Z,603.8
2024-03-27T07:16:56.203Z,603.4
2024-03-27T07:17:57.991Z,603.7
2024-03-27T07:18:59.696Z,604
2024-03-27T07:20:01.534Z,603.9
2024-03-27T07:21:03.315Z,603.4
2024-03-27T07:22:05.149Z,603.2
2024-03-27T07:23:06.967Z,603.7
2024-03-27T07:24:08.814Z,604.5
2024-03-27T07:25:10.593Z,603.4
2024-03-27T07:26:12.297Z,603.3
2024-03-27T07:27:14.044Z,602.9
2024-03-27T07:28:15.822Z,603
2024-03-27T07:29:17.584Z,603.2
2024-03-27T07:30:19.361Z,603.3
2024-03-27T07:31:21.103Z,603.5
2024-03-27T07:32:22.861Z,603
2024-03-27T07:33:24.584Z,602.7
2024-03-27T07:34:26.391Z,602.5
2024-03-27T07:35:28.140Z,603
2024-03-27T07:36:29.882Z,603.7
2024-03-27T07:37:31.647Z,603.5
2024-03-27T07:38:33.388Z,603.1
2024-03-27T07:39:35.982Z,602.8
2024-03-27T07:40:37.741Z,603.2
2024-03-27T07:41:39.536Z,603.8
2024-03-27T07:42:41.368Z,603.9
2024-03-27T07:43:43.116Z,603
2024-03-27T07:44:44.828Z,603
2024-03-27T07:45:46.538Z,603.4
2024-03-27T07:46:48.218Z,604
2024-03-27T07:47:50.032Z,604.2
2024-03-27T07:48:51.781Z,604.4
2024-03-27T07:49:53.574Z,604.6
2024-03-27T07:50:55.382Z,605
2024-03-27T07:51:57.124Z,604.5
2024-03-27T07:53:00.257Z,604.5
2024-03-27T07:54:01.995Z,604.8
2024-03-27T07:55:03.751Z,605.6
2024-03-27T07:56:05.450Z,604.8
2024-03-27T07:57:07.237Z,604.6
2024-03-27T07:58:09.010Z,605
2024-03-27T07:59:10.729Z,605
2024-03-27T08:00:18.317Z,605.1
2024-03-27T08:01:20.036Z,605.4
2024-03-27T08:02:21.754Z,605.5
2024-03-27T08:03:23.633Z,605.2
2024-03-27T08:04:25.368Z,604.7
2024-03-27T08:05:27.092Z,604.1
2024-03-27T08:06:28.834Z,604.7
2024-03-27T08:07:30.601Z,604.9
2024-03-27T08:08:32.398Z,604.7
2024-03-27T08:09:34.140Z,604
2024-03-27T08:10:35.932Z,603.5
2024-03-27T08:11:37.639Z,603.9
2024-03-27T08:12:39.510Z,604.5
2024-03-27T08:13:41.728Z,604.8
2024-03-27T08:14:43.457Z,604.3
2024-03-27T08:15:48.062Z,604
2024-03-27T08:16:49.806Z,604.4
2024-03-27T08:17:51.522Z,604.6
2024-03-27T08:18:53.422Z,605
2024-03-27T08:19:55.310Z,605.2
2024-03-27T08:20:57.112Z,605
2024-03-27T08:21:58.868Z,605.4
2024-03-27T08:23:00.754Z,604.8
2024-03-27T08:24:02.539Z,604.7
2024-03-27T08:25:04.587Z,604.6
2024-03-27T08:26:10.967Z,605.3
2024-03-27T08:27:12.760Z,604.8
2024-03-27T08:28:14.482Z,604.9
2024-03-27T08:29:16.245Z,604.8
2024-03-27T08:30:18.155Z,604.8
2024-03-27T08:31:19.972Z,604.7
2024-03-27T08:32:21.715Z,605.1
2024-03-27T08:33:23.522Z,605.3
2024-03-27T08:34:28.650Z,605.4
2024-03-27T08:35:30.507Z,605.7
2024-03-27T08:36:42.847Z,605.2
2024-03-27T08:37:44.613Z,604.7
2024-03-27T08:38:46.330Z,605
2024-03-27T08:39:48.104Z,605.2
2024-03-27T08:40:49.821Z,605.1
2024-03-27T08:41:51.633Z,605.4
2024-03-27T08:42:53.391Z,605.3
2024-03-27T08:43:55.336Z,605.8
2024-03-27T08:44:57.080Z,606.1
2024-03-27T08:45:58.928Z,606.1
2024-03-27T08:47:00.695Z,606.1
2024-03-27T08:48:02.546Z,606
2024-03-27T08:49:04.308Z,606.4
2024-03-27T08:50:06.033Z,606.4
2024-03-27T08:51:07.795Z,606.6
2024-03-27T08:52:09.538Z,606.2
2024-03-27T08:53:11.328Z,606.4
2024-03-27T08:54:13.049Z,606.2
2024-03-27T08:55:14.829Z,606.5
2024-03-27T08:56:16.594Z,606.2
2024-03-27T08:57:18.364Z,606.6
2024-03-27T08:58:20.146Z,606.7
2024-03-27T08:59:21.970Z,606.6
2024-03-27T09:00:23.835Z,605.9
2024-03-27T09:01:25.590Z,605.6
2024-03-27T09:02:27.324Z,605.9
2024-03-27T09:03:29.161Z,605.9
2024-03-27T09:04:30.978Z,606.1
2024-03-27T09:05:32.752Z,606.5
2024-03-27T09:06:34.669Z,606.9
2024-03-27T09:07:36.494Z,606.8
2024-03-27T09:08:38.240Z,606.3
2024-03-27T09:09:40.093Z,605.4
2024-03-27T09:10:41.886Z,605.6
2024-03-27T09:11:43.605Z,605.7
2024-03-27T09:12:45.836Z,606.2
2024-03-27T09:13:47.575Z,606.2
2024-03-27T09:14:49.332Z,606.1
2024-03-27T09:15:51.159Z,606.6
2024-03-27T09:16:52.906Z,606.4
2024-03-27T09:17:59.294Z,606.5
2024-03-27T09:19:01.106Z,606.7
2024-03-27T09:20:02.936Z,606.4
2024-03-27T09:21:04.761Z,606.3
2024-03-27T09:22:06.502Z,606
2024-03-27T09:23:08.245Z,605.9
2024-03-27T09:24:09.998Z,606.1
2024-03-27T09:25:11.738Z,606
2024-03-27T09:26:13.584Z,606.1
2024-03-27T09:27:15.336Z,606.4
2024-03-27T09:28:17.124Z,606.2
2024-03-27T09:29:18.830Z,606
2024-03-27T09:30:20.606Z,606.2
2024-03-27T09:31:22.413Z,606.3
2024-03-27T09:32:24.381Z,606.2
2024-03-27T09:33:26.088Z,606.6
2024-03-27T09:34:27.876Z,606.8
2024-03-27T09:35:29.659Z,606.7
2024-03-27T09:36:31.565Z,606.2
2024-03-27T09:37:33.389Z,606.1
2024-03-27T09:38:35.216Z,605.3
2024-03-27T09:39:36.978Z,604.9
2024-03-27T09:40:38.723Z,605.1
2024-03-27T09:41:42.938Z,605.8
2024-03-27T09:42:44.866Z,605.6
2024-03-27T09:43:46.688Z,605.9
2024-03-27T09:44:48.419Z,605.5
2024-03-27T09:45:50.244Z,605.5
2024-03-27T09:46:51.986Z,605.5
2024-03-27T09:47:53.714Z,605.8
2024-03-27T09:48:55.493Z,605.2
2024-03-27T09:49:57.246Z,605.9
2024-03-27T09:50:58.947Z,605.9
2024-03-27T09:52:00.697Z,605.6
2024-03-27T09:53:02.472Z,605.2
2024-03-27T09:54:04.265Z,605
2024-03-27T09:55:06.042Z,605.3
2024-03-27T09:56:07.890Z,605.5
2024-03-27T09:57:09.698Z,606.3
2024-03-27T09:58:11.696Z,606.2
2024-03-27T09:59:13.458Z,606.6
2024-03-27T10:00:15.215Z,605.9
2024-03-27T10:01:16.980Z,606
2024-03-27T10:02:18.751Z,605.9
2024-03-27T10:03:20.505Z,606.4
2024-03-27T10:04:22.251Z,607
2024-03-27T10:05:26.986Z,606.9
2024-03-27T10:06:28.711Z,607.2
2024-03-27T10:07:30.477Z,606.3
2024-03-27T10:08:32.197Z,606.4
2024-03-27T10:09:33.994Z,606.2
2024-03-27T10:10:35.979Z,606.3
2024-03-27T10:11:37.701Z,606.2
2024-03-27T10:12:39.459Z,606.6
2024-03-27T10:13:41.201Z,606.5
2024-03-27T10:14:43.044Z,607.6
2024-03-27T10:15:44.960Z,607.9
2024-03-27T10:16:46.720Z,608.2
2024-03-27T10:17:48.447Z,608
2024-03-27T10:18:50.331Z,608
2024-03-27T10:19:52.120Z,607.8
2024-03-27T10:20:53.817Z,607.1
2024-03-27T10:21:55.577Z,607.3
2024-03-27T10:22:57.312Z,607.4
2024-03-27T10:23:59.040Z,607.1
2024-03-27T10:25:00.761Z,607.9
2024-03-27T10:26:02.583Z,608.3
2024-03-27T10:27:04.349Z,608.2
2024-03-27T10:28:06.148Z,608.5
2024-03-27T10:29:07.896Z,608.1
2024-03-27T10:30:09.711Z,608.1
2024-03-27T10:31:11.435Z,608.1
2024-03-27T10:32:13.192Z,608.1
2024-03-27T10:33:18.870Z,608.3
2024-03-27T10:34:20.614Z,609
2024-03-27T10:35:22.352Z,608.3
2024-03-27T10:36:24.172Z,608.7
2024-03-27T10:37:25.927Z,609.1
2024-03-27T10:38:27.698Z,609.5
2024-03-27T10:39:29.469Z,610
2024-03-27T10:40:31.427Z,610.1
2024-03-27T10:41:33.196Z,609.4
2024-03-27T10:42:34.953Z,608.8
2024-03-27T10:43:36.688Z,608.3
2024-03-27T10:44:38.414Z,608.3
2024-03-27T10:45:40.296Z,608.7
2024-03-27T10:46:42.068Z,608.9
2024-03-27T10:47:43.801Z,608.7
2024-03-27T10:48:45.576Z,608.5
2024-03-27T10:49:47.358Z,608
2024-03-27T10:50:49.181Z,608.1
2024-03-27T10:51:50.980Z,608.2
2024-03-27T10:52:52.729Z,608.2
2024-03-27T10:53:54.484Z,608.3
2024-03-27T10:54:56.204Z,608.2
2024-03-27T10:55:58.025Z,608.1
2024-03-27T10:56:59.821Z,607.9
2024-03-27T10:58:01.608Z,607.8
2024-03-27T10:59:03.348Z,608
2024-03-27T11:00:05.137Z,607.8
2024-03-27T11:01:07.228Z,607.9
2024-03-27T11:02:09.028Z,607.6
2024-03-27T11:03:10.898Z,608.3
2024-03-27T11:04:12.674Z,608.8
2024-03-27T11:05:20.570Z,608.5
2024-03-27T11:06:22.349Z,608.2
2024-03-27T11:07:24.165Z,608.1
2024-03-27T11:08:25.913Z,608.1
2024-03-27T11:09:27.657Z,608.1
2024-03-27T11:10:29.424Z,607.9
2024-03-27T11:11:34.487Z,608.1
2024-03-27T11:12:36.239Z,608.6
2024-03-27T11:13:37.967Z,608.9
2024-03-27T11:14:39.727Z,609
2024-03-27T11:15:41.479Z,609
2024-03-27T11:16:43.434Z,608.9
2024-03-27T11:17:45.224Z,608.7
2024-03-27T11:18:47.033Z,608.2
2024-03-27T11:19:48.845Z,608.7
2024-03-27T11:20:50.567Z,608.8
2024-03-27T11:21:52.370Z,609
2024-03-27T11:22:54.106Z,608.9
2024-03-27T11:23:56.145Z,609
2024-03-27T11:24:57.946Z,609.3
2024-03-27T11:25:59.691Z,609
2024-03-27T11:27:01.636Z,609.2
2024-03-27T11:28:03.428Z,609.8
2024-03-27T11:29:05.155Z,610.2
2024-03-27T11:30:06.895Z,609.9
2024-03-27T11:31:08.696Z,610.4
2024-03-27T11:32:10.530Z,610.1
2024-03-27T11:33:12.370Z,610.3
2024-03-27T11:34:14.116Z,610.3
2024-03-27T11:35:16.064Z,610.3
2024-03-27T11:36:17.771Z,610.5
2024-03-27T11:37:19.636Z,610.3
2024-03-27T11:38:21.358Z,610.5
2024-03-27T11:39:23.115Z,611.1
2024-03-27T11:40:25.033Z,611
2024-03-27T11:41:26.791Z,611
2024-03-27T11:42:28.609Z,610.9
2024-03-27T11:43:30.375Z,610.9
2024-03-27T11:44:32.112Z,610.8
2024-03-27T11:45:33.892Z,611.1
2024-03-27T11:46:35.617Z,610.8
2024-03-27T11:47:37.473Z,610.3
2024-03-27T11:48:39.244Z,610.2
2024-03-27T11:49:40.974Z,610.3
2024-03-27T11:50:42.790Z,610.7
2024-03-27T11:51:44.534Z,611.4
2024-03-27T11:52:46.308Z,611.4
2024-03-27T11:53:48.050Z,611.1
2024-03-27T11:54:49.886Z,611.3
2024-03-27T11:55:51.819Z,611.5
2024-03-27T11:56:53.598Z,611.4
2024-03-27T11:57:55.386Z,612.1
2024-03-27T11:58:57.153Z,612.2
2024-03-27T11:59:58.926Z,611.5
2024-03-27T12:01:05.678Z,611.3
2024-03-27T12:02:07.494Z,611.5
2024-03-27T12:03:09.289Z,612.2
2024-03-27T12:04:11.024Z,612.9
2024-03-27T12:05:15.498Z,613.4
2024-03-27T12:06:17.304Z,613.1
2024-03-27T12:07:19.043Z,612.7
2024-03-27T12:08:20.758Z,612.5
2024-03-27T12:09:22.531Z,613.3
2024-03-27T12:10:24.547Z,614.1
2024-03-27T12:11:26.276Z,614.9
2024-03-27T12:12:28.052Z,615.4
2024-03-27T12:13:29.851Z,615.1
2024-03-27T12:14:31.846Z,614.8
2024-03-27T12:15:33.630Z,614.6
2024-03-27T12:16:35.472Z,614.6
2024-03-27T12:17:37.465Z,614.8
2024-03-27T12:18:39.302Z,614.8
2024-03-27T12:19:41.070Z,614.6
2024-03-27T12:20:42.821Z,614.8
2024-03-27T12:21:44.574Z,615.1
2024-03-27T12:22:46.300Z,615.9
2024-03-27T12:23:48.015Z,616.2
2024-03-27T12:24:49.875Z,616.1
2024-03-27T12:25:51.643Z,615.8
2024-03-27T12:26:53.479Z,616
2024-03-27T12:27:55.271Z,615.9
2024-03-27T12:28:57.014Z,616.1
2024-03-27T12:29:58.779Z,616.5
2024-03-27T12:31:00.551Z,616.8
2024-03-27T12:32:02.416Z,617
2024-03-27T12:33:04.178Z,617
2024-03-27T12:34:06.011Z,616.8
2024-03-27T12:35:07.758Z,617.4
2024-03-27T12:36:09.517Z,617.4
2024-03-27T12:37:11.254Z,617.8
2024-03-27T12:38:13.026Z,617.7
2024-03-27T12:39:14.847Z,617.7
2024-03-27T12:40:23.055Z,617.4
2024-03-27T12:41:24.862Z,618.1
2024-03-27T12:42:26.614Z,618
2024-03-27T12:43:28.419Z,618.1
2024-03-27T12:44:30.182Z,618.7
2024-03-27T12:45:31.977Z,618.7
2024-03-27T12:46:33.721Z,618.8
2024-03-27T12:47:35.472Z,618.5
2024-03-27T12:48:37.565Z,618.8
2024-03-27T12:49:39.320Z,618.9
2024-03-27T12:50:41.107Z,619.4
2024-03-27T12:51:42.863Z,619.5
2024-03-27T12:52:44.570Z,619.4
2024-03-27T12:53:46.347Z,618.8
2024-03-27T12:54:48.274Z,618.6
2024-03-27T12:55:50.016Z,618.4
2024-03-27T12:56:51.809Z,618.2
2024-03-27T12:57:53.749Z,617.9
2024-03-27T12:58:55.557Z,618.1
2024-03-27T12:59:57.357Z,618.1
2024-03-27T13:00:59.142Z,618.1
2024-03-27T13:02:00.910Z,617.8
2024-03-27T13:03:02.698Z,618
2024-03-27T13:04:04.492Z,617.9
2024-03-27T13:05:06.257Z,618.3
2024-03-27T13:06:07.998Z,618.3
2024-03-27T13:07:12.050Z,618
2024-03-27T13:08:13.805Z,618.1
2024-03-27T13:09:15.557Z,617.6
2024-03-27T13:10:17.329Z,617.6
2024-03-27T13:11:19.117Z,617.8
2024-03-27T13:12:20.871Z,618.6
2024-03-27T13:13:22.583Z,619.1
2024-03-27T13:14:24.372Z,619.1
2024-03-27T13:15:26.169Z,619
2024-03-27T13:16:27.875Z,618.9
2024-03-27T13:17:29.720Z,618.5
2024-03-27T13:18:31.622Z,618.7
2024-03-27T13:19:33.339Z,618.6
2024-03-27T13:20:35.354Z,618.1
2024-03-27T13:21:37.097Z,618.1
2024-03-27T13:22:38.876Z,618
2024-03-27T13:23:40.594Z,617.6
2024-03-27T13:24:42.792Z,617.5